createdAt,value
2019-03-13T00:04:52.024Z,0.57
2019-03-13T00:07:20.418Z,0.80
2019-03-13T00:09:48.804Z,0.70
2019-03-13T00:12:17.533Z,0.67
2019-03-13T00:14:45.912Z,0.60
2019-03-13T00:17:14.309Z,0.70
2019-03-13T00:20:01.943Z,0.70
2019-03-13T00:22:30.342Z,0.80
2019-03-13T00:28:11.125Z,0.93
2019-03-13T00:33:26.958Z,0.70
2019-03-13T00:38:42.793Z,1.37
2019-03-13T00:41:11.185Z,0.83
2019-03-13T00:43:58.830Z,1.10
2019-03-13T00:46:27.216Z,1.37
2019-03-13T00:49:14.864Z,1.03
2019-03-13T00:54:30.693Z,1.80
2019-03-13T00:57:38.998Z,1.10
2019-03-13T01:00:47.312Z,1.27
2019-03-13T01:03:34.848Z,1.60
2019-03-13T01:06:22.361Z,1.50
2019-03-13T01:08:50.757Z,1.40
2019-03-13T01:11:38.389Z,1.40
2019-03-13T01:14:06.782Z,1.83
2019-03-13T01:16:54.419Z,1.50
2019-03-13T01:19:22.816Z,1.47
2019-03-13T01:24:40.272Z,1.83
2019-03-13T01:27:27.911Z,2.07
2019-03-13T01:30:15.429Z,1.50
2019-03-13T01:36:11.271Z,2.10
2019-03-13T01:41:13.351Z,2.10
2019-03-13T01:43:41.749Z,1.90
2019-03-13T01:46:29.259Z,2.03
2019-03-13T01:49:16.906Z,2.27
2019-03-13T01:51:45.294Z,2.30
2019-03-13T01:54:13.688Z,1.93
2019-03-13T01:59:50.149Z,1.77
2019-03-13T02:02:37.789Z,2.77
2019-03-13T02:05:46.102Z,2.60
2019-03-13T02:08:33.616Z,2.70
2019-03-13T02:11:21.257Z,2.10
2019-03-13T02:14:08.771Z,2.23
2019-03-13T02:19:24.596Z,2.83
2019-03-13T02:21:52.994Z,2.30
2019-03-13T02:25:01.304Z,2.23
2019-03-13T02:27:29.692Z,2.97
2019-03-13T02:30:17.221Z,2.00
2019-03-13T02:32:45.599Z,2.80
2019-03-13T02:35:14.002Z,2.80
2019-03-13T02:40:29.825Z,2.90
2019-03-13T02:45:47.295Z,1.90
2019-03-13T02:48:15.683Z,2.37
2019-03-13T02:50:44.084Z,2.47
2019-03-13T02:53:12.790Z,2.80
2019-03-13T02:55:41.187Z,2.60
2019-03-13T02:58:09.579Z,2.60
2019-03-13T03:06:11.467Z,2.50
2019-03-13T03:09:19.792Z,2.70
2019-03-13T03:11:48.203Z,2.77
2019-03-13T03:14:56.509Z,3.23
2019-03-13T03:17:24.864Z,3.33
2019-03-13T03:19:53.266Z,3.27
2019-03-13T03:22:21.654Z,3.00
2019-03-13T03:25:09.173Z,2.60
2019-03-13T03:27:56.810Z,2.43
2019-03-13T03:31:05.150Z,2.53
2019-03-13T03:33:52.906Z,2.73
2019-03-13T03:36:21.309Z,2.67
2019-03-13T03:39:08.817Z,3.40
2019-03-13T03:41:56.332Z,3.60
2019-03-13T03:44:43.982Z,2.83
2019-03-13T03:47:12.365Z,4.30
2019-03-13T03:52:28.198Z,3.27
2019-03-13T03:55:15.734Z,5.70
2019-03-13T04:01:11.329Z,2.60
2019-03-13T04:03:58.950Z,3.30
2019-03-13T04:07:07.272Z,3.50
2019-03-13T04:09:35.662Z,3.10
2019-03-13T04:15:17.917Z,3.60
2019-03-13T04:17:46.308Z,4.07
2019-03-13T04:20:54.638Z,3.53
2019-03-13T04:23:23.017Z,3.80
2019-03-13T04:26:12.825Z,3.23
2019-03-13T04:28:40.639Z,4.77
2019-03-13T04:31:09.035Z,4.10
2019-03-13T04:33:37.434Z,3.53
2019-03-13T04:36:25.073Z,3.50
2019-03-13T04:39:12.986Z,3.97
2019-03-13T04:41:41.404Z,3.93
2019-03-13T04:44:09.807Z,4.40
2019-03-13T04:46:38.201Z,3.87
2019-03-13T04:49:06.837Z,3.57
2019-03-13T04:51:35.235Z,4.70
2019-03-13T04:54:43.533Z,4.80
2019-03-13T04:57:11.931Z,3.57
2019-03-13T04:59:40.319Z,4.97
2019-03-13T05:02:27.965Z,5.57
2019-03-13T05:04:56.359Z,4.90
2019-03-13T05:07:44.012Z,4.80
2019-03-13T05:10:31.516Z,4.80
2019-03-13T05:13:19.037Z,4.87
2019-03-13T05:15:47.439Z,5.80
2019-03-13T05:21:03.269Z,4.63
2019-03-13T05:23:50.927Z,4.23
2019-03-13T05:26:19.338Z,4.93
2019-03-13T05:28:47.721Z,4.13
2019-03-13T05:31:16.124Z,5.00
2019-03-13T05:33:44.548Z,5.30
2019-03-13T05:36:16.309Z,4.20
2019-03-13T05:38:43.092Z,3.20
2019-03-13T05:44:04.430Z,4.10
2019-03-13T05:46:32.862Z,3.90
2019-03-13T05:49:01.311Z,3.77
2019-03-13T05:51:29.744Z,3.43
2019-03-13T05:53:58.154Z,3.83
2019-03-13T05:56:26.569Z,3.63
2019-03-13T05:58:54.966Z,4.20
2019-03-13T06:01:23.398Z,3.57
2019-03-13T06:03:51.818Z,3.73
2019-03-13T06:06:20.249Z,3.30
2019-03-13T06:08:48.660Z,3.70
2019-03-13T06:11:17.089Z,4.33
2019-03-13T06:13:47.352Z,3.03
2019-03-13T06:16:15.742Z,2.90
2019-03-13T06:24:24.282Z,3.77
2019-03-13T06:27:11.967Z,3.37
2019-03-13T06:29:59.647Z,3.30
2019-03-13T06:32:28.085Z,3.50
2019-03-13T06:40:37.147Z,3.60
2019-03-13T06:43:05.544Z,2.43
2019-03-13T06:45:53.183Z,2.70
2019-03-13T06:48:21.589Z,3.73
2019-03-13T06:50:50.236Z,3.00
2019-03-13T06:53:37.886Z,2.23
2019-03-13T06:56:25.395Z,2.10
2019-03-13T07:01:51.559Z,3.60
2019-03-13T07:04:39.073Z,2.37
2019-03-13T07:12:56.993Z,3.20
2019-03-13T07:15:44.489Z,3.20
2019-03-13T07:18:32.012Z,3.17
2019-03-13T07:21:19.513Z,3.30
2019-03-13T07:24:07.030Z,4.33
2019-03-13T07:26:54.534Z,3.43
2019-03-13T07:29:42.053Z,3.03
2019-03-13T07:32:29.567Z,2.80
2019-03-13T07:35:17.080Z,3.17
2019-03-13T07:38:23.861Z,2.90
2019-03-13T07:41:30.643Z,4.03
2019-03-13T07:44:18.150Z,3.77
2019-03-13T07:47:05.659Z,2.50
2019-03-13T07:55:47.518Z,3.57
2019-03-13T07:58:35.046Z,2.67
2019-03-13T08:01:41.813Z,3.57
2019-03-13T08:07:08.312Z,3.57
2019-03-13T08:09:55.857Z,3.57
2019-03-13T08:12:43.350Z,3.30
2019-03-13T08:15:51.668Z,3.03
2019-03-13T08:18:39.173Z,3.17
2019-03-13T08:21:45.934Z,3.07
2019-03-13T08:24:33.450Z,3.47
2019-03-13T08:27:20.960Z,3.00
2019-03-13T08:30:08.478Z,3.30
2019-03-13T08:33:15.254Z,4.07
2019-03-13T08:36:03.016Z,3.13
2019-03-13T08:38:50.540Z,2.77
2019-03-13T08:41:38.060Z,3.27
2019-03-13T08:44:25.577Z,4.33
2019-03-13T08:47:13.329Z,2.10
2019-03-13T08:50:20.105Z,3.17
2019-03-13T08:56:02.259Z,2.60
2019-03-13T08:58:49.780Z,3.57
2019-03-13T09:01:37.289Z,3.67
2019-03-13T09:04:24.811Z,3.60
2019-03-13T09:13:18.909Z,2.90
2019-03-13T09:16:06.422Z,4.07
2019-03-13T09:18:53.933Z,2.70
2019-03-13T09:24:30.530Z,4.80
2019-03-13T09:27:18.040Z,3.60
2019-03-13T09:33:00.062Z,3.43
2019-03-13T09:38:42.177Z,3.53
2019-03-13T09:44:18.776Z,2.73
2019-03-13T09:47:06.283Z,3.67
2019-03-13T09:49:53.806Z,3.47
2019-03-13T09:52:41.318Z,3.43
2019-03-13T09:55:49.632Z,4.20
2019-03-13T09:58:37.149Z,3.03
2019-03-13T10:03:59.898Z,3.30
2019-03-13T10:06:47.396Z,4.13
2019-03-13T10:09:34.920Z,3.33
2019-03-13T10:12:41.666Z,2.70
2019-03-13T10:15:49.981Z,3.10
2019-03-13T10:18:56.748Z,2.83
2019-03-13T10:21:44.261Z,2.90
2019-03-13T10:27:10.766Z,3.13
2019-03-13T10:29:58.288Z,2.70
2019-03-13T10:35:34.882Z,2.80
2019-03-13T10:38:22.625Z,3.60
2019-03-13T10:43:45.615Z,2.80
2019-03-13T10:49:11.772Z,3.50
2019-03-13T10:51:59.290Z,3.60
2019-03-13T11:00:11.429Z,3.33
2019-03-13T11:02:58.951Z,3.23
2019-03-13T11:06:05.774Z,2.70
2019-03-13T11:08:53.385Z,3.67
2019-03-13T11:11:40.922Z,2.23
2019-03-13T11:14:28.448Z,2.90
2019-03-13T11:17:15.992Z,3.73
2019-03-13T11:20:22.825Z,3.13
2019-03-13T11:26:18.693Z,3.20
2019-03-13T11:31:55.352Z,3.43
2019-03-13T11:35:02.123Z,3.00
2019-03-13T11:37:49.634Z,3.50
2019-03-13T11:40:37.149Z,2.63
2019-03-13T11:51:43.640Z,3.97
2019-03-13T11:54:31.493Z,2.97
2019-03-13T11:57:19.071Z,2.40
2019-03-13T12:00:06.651Z,2.10
2019-03-13T12:02:54.251Z,1.93
2019-03-13T12:05:41.830Z,2.37
2019-03-13T12:08:29.374Z,2.57
2019-03-13T12:11:16.937Z,2.30
2019-03-13T12:19:48.715Z,2.43
2019-03-13T12:22:55.522Z,3.00
2019-03-13T12:28:32.137Z,2.50
2019-03-13T12:34:14.279Z,2.77
2019-03-13T12:37:21.236Z,3.03
2019-03-13T12:40:08.774Z,3.53
2019-03-13T12:43:15.558Z,3.87
2019-03-13T12:51:46.533Z,3.10
2019-03-13T12:57:23.207Z,2.90
2019-03-13T13:00:10.795Z,3.20
2019-03-13T13:02:58.311Z,3.67
2019-03-13T13:11:14.684Z,3.83
2019-03-13T13:14:21.524Z,3.50
2019-03-13T13:17:09.119Z,3.33
2019-03-13T13:19:37.554Z,2.93
2019-03-13T13:22:05.961Z,2.67
2019-03-13T13:24:53.855Z,4.27
2019-03-13T13:27:41.667Z,3.77
2019-03-13T13:30:50.047Z,3.20
2019-03-13T13:33:18.466Z,3.23
2019-03-13T13:35:46.935Z,5.17
2019-03-13T13:38:15.380Z,3.97
2019-03-13T13:41:03.066Z,3.63
2019-03-13T13:43:31.547Z,4.20
2019-03-13T13:46:39.926Z,4.50
2019-03-13T13:49:08.318Z,5.27
2019-03-13T13:51:36.762Z,5.23
2019-03-13T13:54:24.647Z,5.30
2019-03-13T13:56:53.097Z,4.40
2019-03-13T13:59:40.778Z,5.13
2019-03-13T14:04:43.175Z,4.90
2019-03-13T14:07:30.842Z,3.83
2019-03-13T14:09:59.256Z,4.50
2019-03-13T14:12:47.012Z,4.13
2019-03-13T14:15:55.379Z,3.47
2019-03-13T14:18:23.784Z,3.60
2019-03-13T14:21:11.442Z,4.10
2019-03-13T14:23:39.863Z,4.07
2019-03-13T14:26:08.276Z,4.43
2019-03-13T14:29:16.590Z,3.97
2019-03-13T14:31:44.977Z,4.13
2019-03-13T14:36:47.280Z,4.43
2019-03-13T14:39:34.803Z,3.67
2019-03-13T14:42:03.190Z,3.40
2019-03-13T14:47:05.272Z,2.50
2019-03-13T14:49:41.018Z,2.80
2019-03-13T14:54:56.874Z,2.80
2019-03-13T14:57:25.303Z,2.60
2019-03-13T14:59:53.737Z,2.17
2019-03-13T15:02:22.140Z,2.30
2019-03-13T15:05:10.038Z,2.43
2019-03-13T15:07:57.562Z,2.13
2019-03-13T15:10:25.955Z,1.40
2019-03-13T15:13:13.472Z,1.80
2019-03-13T15:15:41.867Z,2.23
2019-03-13T15:18:10.269Z,1.67
2019-03-13T15:20:38.692Z,1.33
2019-03-13T15:23:26.351Z,1.47
2019-03-13T15:26:13.902Z,1.93
2019-03-13T15:28:42.301Z,1.70
2019-03-13T15:36:52.286Z,1.70
2019-03-13T15:39:20.724Z,1.97
2019-03-13T15:41:49.114Z,2.20
2019-03-13T15:44:17.517Z,2.43
2019-03-13T15:46:45.909Z,2.10
2019-03-13T15:49:14.304Z,1.97
2019-03-13T15:51:42.807Z,2.50
2019-03-13T15:54:11.200Z,2.27
2019-03-13T15:56:39.603Z,3.23
2019-03-13T15:59:07.995Z,2.77
2019-03-13T16:01:36.394Z,2.67
2019-03-13T16:04:05.173Z,2.17
2019-03-13T16:06:33.565Z,2.10
2019-03-13T16:09:01.972Z,2.20
2019-03-13T16:11:30.357Z,2.17
2019-03-13T16:13:58.755Z,2.40
2019-03-13T16:16:27.264Z,2.37
2019-03-13T16:18:55.596Z,1.97
2019-03-13T16:21:23.988Z,2.27
2019-03-13T16:23:52.574Z,2.10
2019-03-13T16:26:20.967Z,2.00
2019-03-13T16:28:49.372Z,1.40
2019-03-13T16:31:17.755Z,1.70
2019-03-13T16:33:46.163Z,1.70
2019-03-13T16:36:14.550Z,3.13
2019-03-13T16:38:42.948Z,1.83
2019-03-13T16:41:11.333Z,1.70
2019-03-13T16:43:39.728Z,2.00
2019-03-13T16:46:08.126Z,2.20
2019-03-13T16:48:36.517Z,1.60
2019-03-13T16:51:05.023Z,2.50
2019-03-13T16:53:33.470Z,2.07
2019-03-13T16:56:01.898Z,2.00
2019-03-13T16:58:30.283Z,2.70
2019-03-13T17:00:58.680Z,2.00
2019-03-13T17:03:27.069Z,2.23
2019-03-13T17:05:55.465Z,2.53
2019-03-13T17:08:23.856Z,2.10
2019-03-13T17:10:52.354Z,1.70
2019-03-13T17:13:20.741Z,2.67
2019-03-13T17:15:49.139Z,2.10
2019-03-13T17:18:17.527Z,2.10
2019-03-13T17:20:46.069Z,2.57
2019-03-13T17:23:14.459Z,2.37
2019-03-13T17:25:42.856Z,2.23
2019-03-13T17:28:11.240Z,2.43
2019-03-13T17:30:39.713Z,2.00
2019-03-13T17:33:08.100Z,2.40
2019-03-13T17:35:36.505Z,2.00
2019-03-13T17:38:04.895Z,3.07
2019-03-13T17:40:34.200Z,1.77
2019-03-13T17:43:02.963Z,2.20
2019-03-13T17:45:31.358Z,2.40
2019-03-13T17:47:59.817Z,2.77
2019-03-13T17:50:28.385Z,1.90
2019-03-13T17:52:57.114Z,3.23
2019-03-13T17:55:26.655Z,2.00
2019-03-13T17:57:55.046Z,1.90
2019-03-13T18:00:27.597Z,1.63
2019-03-13T18:02:56.003Z,2.73
2019-03-13T18:05:24.546Z,2.80
2019-03-13T18:07:53.012Z,2.53
2019-03-13T18:10:21.712Z,3.03
2019-03-13T18:12:50.057Z,2.40
2019-03-13T18:15:18.861Z,2.00
2019-03-13T18:17:47.258Z,3.13
2019-03-13T18:20:25.130Z,2.13
2019-03-13T18:22:53.516Z,1.73
2019-03-13T18:25:21.918Z,1.53
2019-03-13T18:27:50.318Z,2.60
2019-03-13T18:30:23.426Z,1.93
2019-03-13T18:32:51.889Z,2.77
2019-03-13T18:35:20.761Z,2.40
2019-03-13T18:37:49.326Z,1.57
2019-03-13T18:40:19.999Z,1.67
2019-03-13T18:42:48.458Z,2.17
2019-03-13T18:45:19.467Z,1.50
2019-03-13T18:47:47.855Z,2.40
2019-03-13T18:50:17.191Z,1.43
2019-03-13T18:52:45.769Z,2.43
2019-03-13T18:55:16.582Z,1.97
2019-03-13T18:57:44.981Z,1.53
2019-03-13T19:00:22.353Z,2.97
2019-03-13T19:02:50.772Z,2.70
2019-03-13T19:05:19.249Z,1.80
2019-03-13T19:07:47.673Z,1.53
2019-03-13T19:10:19.176Z,1.40
2019-03-13T19:12:47.560Z,2.20
2019-03-13T19:15:20.891Z,2.10
2019-03-13T19:17:49.282Z,2.07
2019-03-13T19:20:28.273Z,1.73
2019-03-13T19:22:56.659Z,1.20
2019-03-13T19:25:25.126Z,2.90
2019-03-13T19:27:53.519Z,2.60
2019-03-13T19:30:23.458Z,1.30
2019-03-13T19:32:51.955Z,3.10
2019-03-13T19:35:20.350Z,2.87
2019-03-13T19:37:48.761Z,2.47
2019-03-13T19:40:20.192Z,1.97
2019-03-13T19:42:48.673Z,3.10
2019-03-13T19:45:28.627Z,2.47
2019-03-13T19:47:57.014Z,3.00
2019-03-13T19:50:27.992Z,2.43
2019-03-13T19:52:55.527Z,2.80
2019-03-13T19:55:23.917Z,2.67
2019-03-13T19:57:52.321Z,2.57
2019-03-13T20:00:23.993Z,3.57
2019-03-13T20:03:00.014Z,2.77
2019-03-13T20:05:22.690Z,3.27
2019-03-13T20:07:51.239Z,4.17
2019-03-13T20:10:22.225Z,3.13
2019-03-13T20:12:50.639Z,2.93
2019-03-13T20:15:21.510Z,2.43
2019-03-13T20:17:49.920Z,2.37
2019-03-13T20:20:20.246Z,2.87
2019-03-13T20:22:50.463Z,3.17
2019-03-13T20:25:18.930Z,3.50
2019-03-13T20:27:47.331Z,3.73
2019-03-13T20:30:20.694Z,3.03
2019-03-13T20:32:49.093Z,3.07
2019-03-13T20:35:17.487Z,3.87
2019-03-13T20:37:45.998Z,3.20
2019-03-13T20:40:22.368Z,3.00
2019-03-13T20:42:50.834Z,2.77
2019-03-13T20:45:27.970Z,3.67
2019-03-13T20:47:56.362Z,3.20
2019-03-13T20:50:36.097Z,2.57
2019-03-13T20:52:54.947Z,3.87
2019-03-13T20:55:23.985Z,3.77
2019-03-13T20:57:52.389Z,4.23
2019-03-13T21:00:22.699Z,3.60
2019-03-13T21:02:51.939Z,3.97
2019-03-13T21:05:20.408Z,3.43
2019-03-13T21:07:48.817Z,5.13
2019-03-13T21:10:17.279Z,2.83
2019-03-13T21:12:45.680Z,5.10
2019-03-13T21:15:22.873Z,3.00
2019-03-13T21:17:51.271Z,3.43
2019-03-13T21:20:20.592Z,4.20
2019-03-13T21:22:48.999Z,3.33
2019-03-13T21:25:22.707Z,4.17
2019-03-13T21:27:51.115Z,4.10
2019-03-13T21:30:24.804Z,2.37
2019-03-13T21:32:53.167Z,4.57
2019-03-13T21:35:22.003Z,3.40
2019-03-13T21:37:50.457Z,2.33
2019-03-13T21:41:16.577Z,4.27
2019-03-13T21:43:44.988Z,2.53
2019-03-13T21:46:13.409Z,2.93
2019-03-13T21:49:01.035Z,2.33
2019-03-13T21:51:29.446Z,2.17
2019-03-13T21:53:57.857Z,2.23
2019-03-13T21:59:13.776Z,2.97
2019-03-13T22:01:42.166Z,2.90
2019-03-13T22:04:23.253Z,4.50
2019-03-13T22:06:40.724Z,3.87
2019-03-13T22:09:28.472Z,2.67
2019-03-13T22:11:56.876Z,2.60
2019-03-13T22:14:25.274Z,6.57
2019-03-13T22:16:53.677Z,4.43
2019-03-13T22:19:22.076Z,4.50
2019-03-13T22:21:50.473Z,8.13
2019-03-13T22:24:38.211Z,6.20
2019-03-13T22:29:54.060Z,4.27
2019-03-13T22:32:41.721Z,4.70
2019-03-13T22:35:10.113Z,3.33
2019-03-13T22:40:52.312Z,3.37
2019-03-13T22:43:39.983Z,4.70
2019-03-13T22:46:08.358Z,6.20
2019-03-13T22:48:36.754Z,3.13
2019-03-13T22:51:05.152Z,7.37
2019-03-13T22:53:33.582Z,5.13
2019-03-13T22:56:01.977Z,6.00
2019-03-13T23:01:43.975Z,4.33
2019-03-13T23:04:12.393Z,2.73
2019-03-13T23:06:40.785Z,3.10
2019-03-13T23:09:11.794Z,2.97
2019-03-13T23:11:40.632Z,2.97
2019-03-13T23:14:09.027Z,2.60
2019-03-13T23:16:37.422Z,2.30
2019-03-13T23:19:05.818Z,2.80
2019-03-13T23:21:34.214Z,2.00
2019-03-13T23:24:02.614Z,2.53
2019-03-13T23:26:31.003Z,2.30
2019-03-13T23:28:59.408Z,2.03
2019-03-13T23:31:27.808Z,2.13
2019-03-13T23:33:56.211Z,1.43
2019-03-13T23:36:24.608Z,1.77
2019-03-13T23:38:53.132Z,1.37
2019-03-13T23:41:21.485Z,1.67
2019-03-13T23:43:49.879Z,1.90
2019-03-13T23:46:18.281Z,1.80
2019-03-13T23:48:46.684Z,2.03
2019-03-13T23:51:15.141Z,2.10
2019-03-13T23:53:43.530Z,2.00
2019-03-13T23:56:11.998Z,2.10
2019-03-13T23:58:40.393Z,1.97
